Time;durP1;ratioP1;P1;durP2;ratioP2;P2;SDS_P1;SDS_P2;PMS_P1;PMS_P2;Temp;Humidity;BMP_temperature;BMP_pressure;BME280_temperature;BME280_humidity;BME280_pressure;Samples;Min_cycle;Max_cycle;Signal;HPM_P1;HPM_P2
2022/12/01 00:00:47;;;;;;;56.40;29.80;;;5.00;99.90;;;;;;5066400;28;20400;-78
2022/12/01 00:03:13;;;;;;;33.50;22.30;;;5.00;99.90;;;;;;5066043;28;20132;-78
2022/12/01 00:05:38;;;;;;;35.63;22.10;;;5.00;99.90;;;;;;5068793;28;20107;-78
2022/12/01 00:08:04;;;;;;;61.60;35.45;;;5.00;99.90;;;;;;5068143;28;20108;-78
2022/12/01 00:10:32;;;;;;;35.13;22.35;;;5.10;99.90;;;;;;5064857;28;20029;-78
2022/12/01 00:13:03;;;;;;;34.53;21.35;;;5.10;99.90;;;;;;5069260;28;20512;-78
2022/12/01 00:15:35;;;;;;;32.28;20.88;;;5.10;99.90;;;;;;5064462;28;20025;-78
2022/12/01 00:18:02;;;;;;;35.38;20.30;;;5.10;99.90;;;;;;5069271;28;20025;-78
2022/12/01 00:20:29;;;;;;;31.33;19.42;;;5.10;99.90;;;;;;5068424;28;20060;-78
2022/12/01 00:22:54;;;;;;;45.38;29.30;;;5.10;99.90;;;;;;5065644;28;20025;-77
2022/12/01 00:25:20;;;;;;;81.95;48.75;;;5.10;99.90;;;;;;5066844;28;20044;-77
2022/12/01 00:27:48;;;;;;;158.93;91.22;;;5.10;99.90;;;;;;5066073;28;20040;-78
2022/12/01 00:30:15;;;;;;;65.57;43.08;;;5.10;99.90;;;;;;5067855;28;20025;-78
2022/12/01 00:32:41;;;;;;;76.18;48.10;;;5.10;99.90;;;;;;5068753;28;20037;-78
2022/12/01 00:35:07;;;;;;;36.88;18.65;;;5.10;99.90;;;;;;5066933;28;20116;-77
2022/12/01 00:37:34;;;;;;;30.67;18.85;;;5.10;99.90;;;;;;5069311;28;20039;-78
2022/12/01 00:40:00;;;;;;;25.75;17.85;;;5.10;99.90;;;;;;5071617;28;20013;-78
2022/12/01 00:42:26;;;;;;;29.58;19.25;;;5.20;99.90;;;;;;5064239;28;20496;-77
2022/12/01 00:44:53;;;;;;;27.33;18.13;;;5.20;99.90;;;;;;5071763;28;20021;-78
2022/12/01 00:47:19;;;;;;;28.20;17.83;;;5.20;99.90;;;;;;5061501;28;20035;-78
2022/12/01 00:49:45;;;;;;;36.97;21.08;;;5.20;99.90;;;;;;5069307;28;20159;-78
2022/12/01 00:52:12;;;;;;;49.67;29.98;;;5.20;99.90;;;;;;5062921;28;20056;-78
2022/12/01 00:54:38;;;;;;;36.47;22.02;;;5.20;99.90;;;;;;5065508;28;20111;-77
2022/12/01 00:57:04;;;;;;;41.47;22.25;;;5.20;99.90;;;;;;5072276;28;20059;-77
2022/12/01 00:59:30;;;;;;;34.45;24.23;;;5.20;99.90;;;;;;5058082;28;20025;-77
2022/12/01 01:01:56;;;;;;;37.15;23.88;;;5.20;99.90;;;;;;5071581;28;20320;-78
2022/12/01 01:04:21;;;;;;;177.70;78.47;;;5.20;99.90;;;;;;5058160;28;20064;-77
2022/12/01 01:06:47;;;;;;;51.55;25.20;;;5.20;99.90;;;;;;5070423;28;20150;-78
2022/12/01 01:09:14;;;;;;;42.60;25.20;;;5.20;99.90;;;;;;5063392;28;20021;-78
2022/12/01 01:11:41;;;;;;;40.47;24.70;;;5.20;99.90;;;;;;5068623;28;20055;-78
2022/12/01 01:14:07;;;;;;;42.55;24.20;;;5.10;99.90;;;;;;5072445;28;20021;-78
2022/12/01 01:16:34;;;;;;;39.03;22.30;;;5.10;99.90;;;;;;5064089;28;20040;-77
2022/12/01 01:19:00;;;;;;;40.08;22.80;;;5.10;99.90;;;;;;5072881;28;20056;-78
2022/12/01 01:21:26;;;;;;;38.33;22.55;;;5.10;99.90;;;;;;5061434;28;20501;-77
2022/12/01 01:23:54;;;;;;;37.65;23.02;;;5.10;99.90;;;;;;5069391;28;20020;-78
2022/12/01 01:26:26;;;;;;;35.83;23.33;;;5.10;99.90;;;;;;5057886;28;20021;-78
2022/12/01 01:28:54;;;;;;;29.60;19.88;;;5.20;99.90;;;;;;5060498;28;20021;-77
2022/12/01 01:31:22;;;;;;;31.27;20.73;;;5.20;99.90;;;;;;5073174;28;20025;-77
2022/12/01 01:33:48;;;;;;;36.35;21.23;;;5.20;99.90;;;;;;5066924;28;20120;-77
2022/12/01 01:36:15;;;;;;;29.20;18.63;;;5.20;99.90;;;;;;5063691;28;20065;-77
2022/12/01 01:38:41;;;;;;;30.85;19.70;;;5.20;99.90;;;;;;5061842;28;20999;-77
2022/12/01 01:41:08;;;;;;;30.17;20.15;;;5.20;99.90;;;;;;5060878;28;20025;-77
2022/12/01 01:43:43;;;;;;;31.95;20.98;;;5.10;99.90;;;;;;5063778;28;20025;-77
2022/12/01 01:46:15;;;;;;;28.33;19.80;;;5.20;99.90;;;;;;5058906;28;20491;-77
2022/12/01 01:48:46;;;;;;;35.10;22.30;;;5.20;99.90;;;;;;5061022;28;20104;-77
2022/12/01 01:51:13;;;;;;;35.05;21.55;;;5.20;99.90;;;;;;5056240;28;20032;-77
2022/12/01 01:53:41;;;;;;;31.40;23.30;;;5.20;99.90;;;;;;5066690;28;20032;-77
2022/12/01 01:56:08;;;;;;;30.73;20.05;;;5.20;99.90;;;;;;5066703;28;20050;-77
2022/12/01 01:58:35;;;;;;;35.00;21.75;;;5.20;99.90;;;;;;5059284;28;20029;-77
2022/12/01 02:01:01;;;;;;;34.58;21.50;;;5.20;99.90;;;;;;5086602;28;20017;-77
2022/12/01 02:03:28;;;;;;;34.67;22.38;;;5.20;99.90;;;;;;5062882;28;20401;-77
2022/12/01 02:05:54;;;;;;;44.35;25.63;;;5.20;99.90;;;;;;5070182;28;20070;-77
2022/12/01 02:08:20;;;;;;;38.22;23.80;;;5.20;99.90;;;;;;5065941;28;20032;-77
2022/12/01 02:11:05;;;;;;;42.00;24.02;;;5.20;99.90;;;;;;5069268;28;20044;-77
2022/12/01 02:13:56;;;;;;;42.97;24.77;;;5.20;99.90;;;;;;5067244;28;20050;-77
2022/12/01 02:16:47;;;;;;;44.38;26.48;;;5.20;99.90;;;;;;5064665;28;20573;-78
2022/12/01 02:19:21;;;;;;;38.80;25.65;;;5.20;99.90;;;;;;5063466;28;20184;-77
2022/12/01 02:21:53;;;;;;;39.92;24.88;;;5.30;99.90;;;;;;5075021;28;20025;-77
2022/12/01 02:24:25;;;;;;;39.15;25.27;;;5.20;99.90;;;;;;5072718;28;20037;-77
2022/12/01 02:27:23;;;;;;;42.60;25.15;;;5.20;99.90;;;;;;5060456;28;20013;-77
2022/12/01 02:30:08;;;;;;;37.88;25.15;;;5.20;99.90;;;;;;5043515;28;20036;-77
2022/12/01 02:32:46;;;;;;;40.95;23.85;;;5.20;99.90;;;;;;5072072;28;20504;-77
2022/12/01 02:35:18;;;;;;;37.60;23.80;;;5.20;99.90;;;;;;5070002;28;20017;-77
2022/12/01 02:38:17;;;;;;;40.53;25.20;;;5.20;99.90;;;;;;5070213;28;20032;-77
2022/12/01 02:40:50;;;;;;;57.28;27.90;;;5.20;99.90;;;;;;5064122;28;20208;-77
2022/12/01 02:43:25;;;;;;;39.58;23.65;;;5.20;99.90;;;;;;5065940;28;20021;-77
2022/12/01 02:46:19;;;;;;;46.67;28.73;;;5.20;99.90;;;;;;5072082;28;20020;-77
2022/12/01 02:48:50;;;;;;;44.40;25.75;;;5.30;99.90;;;;;;5064824;28;20507;-77
2022/12/01 02:51:21;;;;;;;;;;;5.30;99.90;;;;;;5070282;28;20032;-77
2022/12/01 02:53:48;;;;;;;40.50;24.40;;;5.30;99.90;;;;;;5070435;28;19908;-77
2022/12/01 02:56:17;;;;;;;42.85;27.67;;;5.30;99.90;;;;;;5069253;28;20024;-77
2022/12/01 02:58:43;;;;;;;42.90;26.35;;;5.30;99.90;;;;;;5065486;28;20029;-77
2022/12/01 03:01:31;;;;;;;46.75;28.67;;;5.30;99.90;;;;;;5066837;28;20021;-77
2022/12/01 03:03:57;;;;;;;44.03;26.35;;;5.30;99.90;;;;;;5064551;28;20025;-77
2022/12/01 03:06:23;;;;;;;39.53;25.73;;;5.30;99.90;;;;;;5072351;28;20507;-77
2022/12/01 03:09:00;;;;;;;41.95;26.77;;;5.30;99.90;;;;;;5064343;28;20578;-77
2022/12/01 03:11:37;;;;;;;48.03;25.58;;;5.30;99.90;;;;;;5072115;28;20025;-77
2022/12/01 03:14:30;;;;;;;39.53;24.48;;;5.30;99.90;;;;;;5075826;28;20078;-77
2022/12/01 03:17:02;;;;;;;36.50;24.13;;;5.20;99.90;;;;;;5072049;28;20047;-76
2022/12/01 03:19:34;;;;;;;40.45;24.00;;;5.30;99.90;;;;;;5074732;28;20020;-77
2022/12/01 03:22:18;;;;;;;34.20;21.10;;;5.20;99.90;;;;;;5061774;28;20028;-77
2022/12/01 03:24:47;;;;;;;34.15;21.48;;;5.20;99.90;;;;;;5070988;28;20041;-77
2022/12/01 03:27:17;;;;;;;33.28;21.73;;;5.20;99.90;;;;;;5068192;28;20017;-77
2022/12/01 03:29:47;;;;;;;35.25;22.38;;;5.20;99.90;;;;;;5064491;28;20019;-77
2022/12/01 03:32:33;;;;;;;36.13;22.85;;;5.20;99.90;;;;;;5073897;28;20123;-77
2022/12/01 03:35:15;;;;;;;35.70;22.50;;;5.20;99.90;;;;;;5076494;28;20043;-76
2022/12/01 03:38:05;;;;;;;37.47;22.67;;;5.20;99.90;;;;;;5067523;28;20036;-77
2022/12/01 03:40:35;;;;;;;35.08;22.75;;;5.10;99.90;;;;;;5076761;28;20494;-77
2022/12/01 03:43:06;;;;;;;32.37;21.60;;;5.20;99.90;;;;;;5065735;28;20028;-77
2022/12/01 03:45:59;;;;;;;36.90;23.50;;;5.10;99.90;;;;;;5074378;28;20757;-77
2022/12/01 03:48:25;;;;;;;38.55;23.05;;;5.10;99.90;;;;;;5056994;28;20036;-77
2022/12/01 03:51:14;;;;;;;35.85;25.00;;;5.10;99.90;;;;;;5070465;28;20029;-77
2022/12/01 03:53:51;;;;;;;41.25;24.40;;;5.10;99.90;;;;;;5068516;28;20025;-77
2022/12/01 03:56:22;;;;;;;39.05;24.23;;;5.10;99.90;;;;;;5066308;28;20028;-77
2022/12/01 03:58:51;;;;;;;36.90;24.73;;;5.20;99.90;;;;;;5068361;28;20071;-77
2022/12/01 04:01:18;;;;;;;37.40;23.38;;;5.10;99.90;;;;;;5069634;28;20150;-77
2022/12/01 04:03:46;;;;;;;36.15;21.67;;;5.10;99.90;;;;;;5064775;28;20024;-77
2022/12/01 04:06:12;;;;;;;37.63;23.30;;;5.20;99.90;;;;;;5064458;28;20477;-77
2022/12/01 04:08:38;;;;;;;41.50;25.05;;;5.20;99.90;;;;;;5061235;28;20017;-77
2022/12/01 04:12:28;;;;;;;38.80;24.60;;;5.20;99.90;;;;;;5072044;28;20025;-77
2022/12/01 04:13:50;;;;;;;38.67;24.38;;;5.20;99.90;;;;;;5074467;28;20052;-77
2022/12/01 04:16:16;;;;;;;35.75;23.20;;;5.20;99.90;;;;;;5066834;28;20036;-77
2022/12/01 04:18:42;;;;;;;40.75;25.20;;;5.20;99.90;;;;;;5071656;28;20155;-77
2022/12/01 04:21:08;;;;;;;40.38;24.13;;;5.20;99.90;;;;;;5065120;28;20397;-77
2022/12/01 04:26:17;;;;;;;37.72;22.90;;;5.20;99.90;;;;;;5059657;28;20071;-77
2022/12/01 04:28:43;;;;;;;37.80;24.67;;;5.20;99.90;;;;;;5061971;28;20021;-77
2022/12/01 04:31:09;;;;;;;39.28;24.15;;;5.20;99.90;;;;;;5073697;28;20588;-77
2022/12/01 04:33:35;;;;;;;42.63;26.05;;;5.20;99.90;;;;;;5068643;28;20473;-77
2022/12/01 04:36:01;;;;;;;43.28;25.25;;;5.20;99.90;;;;;;5069406;28;20013;-77
2022/12/01 04:38:27;;;;;;;42.38;26.60;;;5.20;99.90;;;;;;5067255;28;20029;-77
2022/12/01 04:40:53;;;;;;;43.17;24.85;;;5.20;99.90;;;;;;5062835;28;20503;-77
2022/12/01 04:43:19;;;;;;;39.08;25.42;;;5.20;99.90;;;;;;5070162;28;20076;-77
2022/12/01 04:45:45;;;;;;;44.10;24.98;;;5.20;99.90;;;;;;5072815;28;20020;-77
2022/12/01 04:48:10;;;;;;;43.25;26.65;;;5.20;99.90;;;;;;5068673;28;20021;-77
2022/12/01 04:50:36;;;;;;;37.10;24.30;;;5.20;99.90;;;;;;5069361;28;20083;-77
2022/12/01 04:53:03;;;;;;;37.50;24.58;;;5.20;99.90;;;;;;5062730;28;20047;-77
2022/12/01 04:55:29;;;;;;;50.35;25.20;;;5.20;99.90;;;;;;5065927;28;20563;-78
2022/12/01 04:57:55;;;;;;;44.47;27.00;;;5.20;99.90;;;;;;5069880;28;20059;-77
2022/12/01 05:00:21;;;;;;;46.80;28.92;;;5.20;99.90;;;;;;5066310;28;20058;-77
2022/12/01 05:02:48;;;;;;;47.60;26.52;;;5.20;99.90;;;;;;5069084;28;20013;-77
2022/12/01 05:05:14;;;;;;;55.13;31.10;;;5.20;99.90;;;;;;5072842;28;20102;-77
2022/12/01 05:07:39;;;;;;;55.63;33.67;;;5.20;99.90;;;;;;5068781;28;20024;-77
2022/12/01 05:10:06;;;;;;;68.25;34.65;;;5.20;99.90;;;;;;5079536;28;20025;-78
2022/12/01 05:12:32;;;;;;;57.50;33.72;;;5.20;99.90;;;;;;5066387;28;20058;-77
2022/12/01 05:14:58;;;;;;;60.33;33.10;;;5.20;99.90;;;;;;5071316;28;20504;-77
2022/12/01 05:17:23;;;;;;;60.08;34.92;;;5.20;99.90;;;;;;5064437;28;20548;-77
2022/12/01 05:22:33;;;;;;;63.28;34.97;;;5.20;99.90;;;;;;5067293;28;20111;-77
2022/12/01 05:24:59;;;;;;;62.78;34.72;;;5.10;99.90;;;;;;5058591;28;20105;-77
2022/12/01 05:27:25;;;;;;;57.60;33.88;;;5.10;99.90;;;;;;5063628;28;20120;-78
2022/12/01 05:29:51;;;;;;;60.55;33.53;;;5.10;99.90;;;;;;5063854;28;20016;-77
2022/12/01 05:32:16;;;;;;;65.85;34.05;;;5.10;99.90;;;;;;5066526;28;20032;-78
2022/12/01 05:34:42;;;;;;;60.10;33.40;;;5.10;99.90;;;;;;5066418;28;20493;-77
2022/12/01 05:37:08;;;;;;;64.40;34.95;;;5.10;99.90;;;;;;5070173;28;20362;-77
2022/12/01 05:39:34;;;;;;;66.60;35.47;;;5.10;99.90;;;;;;5067904;28;20036;-78
2022/12/01 05:41:59;;;;;;;63.63;35.25;;;5.10;99.90;;;;;;5074627;28;20029;-77
2022/12/01 05:44:25;;;;;;;56.45;33.55;;;5.10;99.90;;;;;;5067788;28;20092;-78
2022/12/01 05:46:51;;;;;;;65.93;35.78;;;5.10;99.90;;;;;;5062523;28;20032;-77
2022/12/01 05:49:17;;;;;;;59.92;33.95;;;5.10;99.90;;;;;;5077893;28;20476;-77
2022/12/01 05:51:43;;;;;;;67.43;35.17;;;5.10;99.90;;;;;;5066445;28;20485;-77
2022/12/01 05:54:09;;;;;;;61.45;36.05;;;5.10;99.90;;;;;;5071583;28;20107;-77
2022/12/01 05:56:35;;;;;;;59.08;33.00;;;5.10;99.90;;;;;;5071702;28;20033;-77
2022/12/01 05:59:00;;;;;;;60.08;33.53;;;5.10;99.90;;;;;;5067480;28;20025;-77
2022/12/01 06:01:26;;;;;;;58.80;34.17;;;5.10;99.90;;;;;;5071858;28;20033;-78
2022/12/01 06:03:53;;;;;;;63.13;34.75;;;5.10;99.90;;;;;;5066523;28;20501;-77
2022/12/01 06:06:19;;;;;;;58.92;34.65;;;5.10;99.90;;;;;;5072808;28;20453;-77
2022/12/01 06:08:45;;;;;;;59.38;34.00;;;5.10;99.90;;;;;;5063299;28;20029;-77
2022/12/01 06:11:11;;;;;;;57.15;32.88;;;5.10;99.90;;;;;;5074618;28;20477;-77
2022/12/01 06:13:37;;;;;;;58.80;31.25;;;5.10;99.90;;;;;;5073454;28;20027;-77
2022/12/01 06:16:04;;;;;;;58.25;31.83;;;5.10;99.90;;;;;;5071258;28;20078;-77
2022/12/01 06:18:32;;;;;;;59.28;32.92;;;5.00;99.90;;;;;;5072384;28;20024;-77
2022/12/01 06:20:58;;;;;;;58.28;32.97;;;5.00;99.90;;;;;;5068879;28;20057;-77
2022/12/01 06:23:24;;;;;;;63.40;32.95;;;4.90;99.90;;;;;;5069686;28;20110;-77
2022/12/01 06:25:50;;;;;;;66.97;33.13;;;5.00;99.90;;;;;;5064753;28;20040;-77
2022/12/01 06:28:16;;;;;;;57.65;31.83;;;4.90;99.90;;;;;;5064409;28;20056;-77
2022/12/01 06:30:42;;;;;;;60.80;32.33;;;4.90;99.90;;;;;;5073269;28;20048;-77
2022/12/01 06:33:08;;;;;;;57.92;32.60;;;4.90;99.90;;;;;;5069978;28;20037;-77
2022/12/01 06:35:34;;;;;;;52.92;29.95;;;4.90;99.90;;;;;;5071045;28;20020;-77
2022/12/01 06:38:00;;;;;;;57.35;33.03;;;4.90;99.90;;;;;;5071457;28;20036;-77
2022/12/01 06:40:26;;;;;;;52.75;29.50;;;4.90;99.90;;;;;;5078404;28;20036;-78
2022/12/01 06:42:52;;;;;;;56.40;30.98;;;4.90;99.90;;;;;;5067606;28;20021;-77
2022/12/01 06:45:18;;;;;;;64.00;33.10;;;4.90;99.90;;;;;;5074876;28;20393;-77
2022/12/01 06:47:46;;;;;;;55.20;32.22;;;4.90;99.90;;;;;;5060188;28;20032;-77
2022/12/01 06:50:12;;;;;;;60.08;31.95;;;4.90;99.90;;;;;;5075283;28;20027;-77
2022/12/01 06:52:38;;;;;;;59.80;32.75;;;4.90;99.90;;;;;;5062869;28;20056;-79
2022/12/01 06:55:05;;;;;;;60.22;31.90;;;4.90;99.90;;;;;;5070426;28;20440;-79
2022/12/01 06:57:31;;;;;;;55.40;31.23;;;4.90;99.90;;;;;;5061059;28;20052;-78
2022/12/01 06:59:57;;;;;;;58.95;33.05;;;4.90;99.90;;;;;;5069840;28;20641;-79
2022/12/01 07:02:23;;;;;;;65.05;30.65;;;4.90;99.90;;;;;;5059920;28;20013;-78
2022/12/01 07:04:49;;;;;;;60.88;33.72;;;4.80;99.90;;;;;;5064388;28;20405;-78
2022/12/01 07:07:14;;;;;;;64.72;31.83;;;4.90;99.90;;;;;;5072204;28;20021;-78
2022/12/01 07:09:40;;;;;;;61.00;31.88;;;4.80;99.90;;;;;;5065362;28;20055;-78
2022/12/01 07:12:06;;;;;;;56.25;31.65;;;4.80;99.90;;;;;;5070277;28;20420;-78
2022/12/01 07:14:32;;;;;;;59.95;32.55;;;4.80;99.90;;;;;;5064214;28;20162;-78
2022/12/01 07:16:58;;;;;;;58.05;33.63;;;4.80;99.90;;;;;;5073083;28;20036;-78
2022/12/01 07:19:24;;;;;;;57.60;30.15;;;4.70;99.90;;;;;;5067965;28;20029;-78
2022/12/01 07:21:50;;;;;;;56.08;30.42;;;4.80;99.90;;;;;;5070363;28;20063;-78
2022/12/01 07:24:16;;;;;;;140.25;68.20;;;4.80;99.90;;;;;;5070248;28;20087;-78
2022/12/01 07:26:42;;;;;;;218.40;108.82;;;4.70;99.90;;;;;;5070103;28;20021;-78
2022/12/01 07:29:09;;;;;;;51.22;29.80;;;4.70;99.90;;;;;;5072213;28;20091;-78
2022/12/01 07:31:36;;;;;;;58.60;30.92;;;4.70;99.90;;;;;;5071452;28;20029;-78
2022/12/01 07:34:02;;;;;;;53.45;30.75;;;4.70;99.90;;;;;;5069120;28;20043;-79
2022/12/01 07:36:28;;;;;;;54.55;31.67;;;4.70;99.90;;;;;;5071397;28;20025;-78
2022/12/01 07:38:54;;;;;;;51.97;29.17;;;4.70;99.90;;;;;;5071063;28;20047;-78
2022/12/01 07:41:20;;;;;;;55.40;32.22;;;4.80;99.90;;;;;;5069889;28;20017;-78
2022/12/01 07:43:47;;;;;;;46.65;25.65;;;4.80;99.90;;;;;;5067787;28;20024;-77
2022/12/01 07:46:15;;;;;;;47.75;27.55;;;4.70;99.90;;;;;;5075155;28;20017;-78
2022/12/01 07:48:41;;;;;;;48.67;28.95;;;4.80;99.90;;;;;;5068787;28;20469;-78
2022/12/01 07:51:09;;;;;;;47.47;26.20;;;4.70;99.90;;;;;;5077043;28;20024;-78
2022/12/01 07:53:36;;;;;;;44.78;26.02;;;4.70;99.90;;;;;;5072612;28;20032;-78
2022/12/01 07:56:03;;;;;;;41.30;23.70;;;4.60;99.90;;;;;;5075802;28;20058;-78
2022/12/01 07:58:29;;;;;;;40.40;23.77;;;4.60;99.90;;;;;;5067885;28;20032;-77
2022/12/01 08:00:55;;;;;;;45.00;23.92;;;4.60;99.90;;;;;;5059887;28;20071;-77
2022/12/01 08:03:21;;;;;;;44.55;23.90;;;4.60;99.90;;;;;;5060821;28;20024;-77
2022/12/01 08:06:01;;;;;;;41.70;24.27;;;4.60;99.90;;;;;;5067558;28;20021;-78
2022/12/01 08:08:28;;;;;;;35.73;21.30;;;4.50;99.90;;;;;;5062529;28;20481;-77
2022/12/01 08:11:03;;;;;;;44.00;23.60;;;4.50;99.90;;;;;;5067951;28;20032;-77
2022/12/01 08:13:29;;;;;;;35.20;20.23;;;4.50;99.90;;;;;;5070189;28;20070;-77
2022/12/01 08:15:56;;;;;;;36.05;21.73;;;4.50;99.90;;;;;;5072349;28;20029;-78
2022/12/01 08:18:22;;;;;;;31.13;19.10;;;4.50;99.90;;;;;;5064135;28;20051;-78
2022/12/01 08:20:49;;;;;;;31.75;19.77;;;4.50;99.90;;;;;;5067153;28;20031;-78
2022/12/01 08:23:15;;;;;;;33.75;20.23;;;4.40;99.90;;;;;;5066046;28;20028;-77
2022/12/01 08:25:41;;;;;;;35.13;20.63;;;4.40;99.90;;;;;;5073530;28;20041;-78
2022/12/01 08:28:06;;;;;;;35.55;20.02;;;4.40;99.90;;;;;;5062976;28;20043;-77
2022/12/01 08:30:32;;;;;;;31.42;18.52;;;4.50;99.90;;;;;;5068723;28;20017;-78
2022/12/01 08:32:58;;;;;;;30.92;19.90;;;4.40;99.90;;;;;;5061334;28;20509;-78
2022/12/01 08:35:24;;;;;;;30.95;19.70;;;4.40;99.90;;;;;;5075421;28;20161;-77
2022/12/01 08:37:53;;;;;;;31.88;19.08;;;4.40;99.90;;;;;;5060711;28;20377;-77
2022/12/01 08:40:20;;;;;;;31.35;20.33;;;4.40;99.90;;;;;;5076264;28;20033;-78
2022/12/01 08:42:46;;;;;;;30.83;19.52;;;4.40;99.90;;;;;;5071632;28;20533;-76
2022/12/01 08:45:12;;;;;;;29.25;17.75;;;4.40;99.90;;;;;;5068973;28;20054;-76
2022/12/01 08:47:38;;;;;;;31.63;16.80;;;4.40;99.90;;;;;;5069215;28;20017;-76
2022/12/01 08:50:05;;;;;;;27.08;16.30;;;4.30;99.90;;;;;;5068665;28;20027;-77
2022/12/01 08:52:32;;;;;;;30.52;17.95;;;4.30;99.90;;;;;;5064995;28;20032;-77
2022/12/01 08:54:58;;;;;;;34.70;17.45;;;4.30;99.90;;;;;;5071900;28;20066;-77
2022/12/01 08:57:23;;;;;;;24.20;16.73;;;4.30;99.90;;;;;;5064950;28;20020;-77
2022/12/01 08:59:49;;;;;;;25.13;14.80;;;4.30;99.90;;;;;;5069167;28;20427;-77
2022/12/01 09:02:21;;;;;;;23.98;14.07;;;4.30;99.90;;;;;;5062004;28;20048;-78
2022/12/01 09:04:48;;;;;;;22.40;14.57;;;4.30;99.90;;;;;;5073039;28;20095;-77
2022/12/01 09:07:15;;;;;;;23.73;15.07;;;4.30;99.90;;;;;;5072429;28;20025;-77
2022/12/01 09:09:42;;;;;;;22.58;13.93;;;4.30;99.90;;;;;;5062142;28;20034;-77
2022/12/01 09:12:09;;;;;;;24.85;15.48;;;4.30;99.90;;;;;;5069820;28;20056;-77
2022/12/01 09:14:41;;;;;;;23.23;13.70;;;4.30;99.90;;;;;;5064023;28;20099;-77
2022/12/01 09:17:08;;;;;;;20.95;13.90;;;4.40;99.90;;;;;;5070626;28;20512;-76
2022/12/01 09:19:34;;;;;;;21.88;13.45;;;4.50;99.90;;;;;;5073224;28;20025;-77
2022/12/01 09:22:00;;;;;;;23.02;14.50;;;4.50;99.90;;;;;;5068982;28;20016;-77
2022/12/01 09:24:26;;;;;;;18.98;12.48;;;4.40;99.90;;;;;;5068498;28;20136;-77
2022/12/01 09:26:57;;;;;;;22.27;14.95;;;4.40;99.90;;;;;;5058624;28;20041;-76
2022/12/01 09:29:23;;;;;;;20.88;13.40;;;4.40;99.90;;;;;;5064893;28;20029;-77
2022/12/01 09:31:49;;;;;;;16.20;12.45;;;4.40;99.90;;;;;;5073369;28;20033;-77
2022/12/01 09:34:17;;;;;;;18.10;12.43;;;4.30;99.90;;;;;;5065826;28;20028;-77
2022/12/01 09:36:44;;;;;;;44.88;25.77;;;4.40;99.90;;;;;;5066501;28;20063;-77
2022/12/01 09:39:18;;;;;;;19.88;13.70;;;4.30;99.90;;;;;;5063426;28;20434;-76
2022/12/01 09:42:06;;;;;;;17.27;12.80;;;4.30;99.90;;;;;;5067284;28;20017;-75
2022/12/01 09:44:34;;;;;;;20.98;13.10;;;4.30;99.90;;;;;;5063189;28;20058;-75
2022/12/01 09:47:09;;;;;;;18.45;14.25;;;4.30;99.90;;;;;;5066294;28;20067;-76
2022/12/01 09:49:49;;;;;;;20.45;13.30;;;4.30;99.90;;;;;;5066547;28;20458;-76
2022/12/01 09:52:18;;;;;;;20.25;13.45;;;4.30;99.90;;;;;;5062384;28;20501;-76
2022/12/01 09:54:46;;;;;;;22.83;14.30;;;4.30;99.90;;;;;;5069780;28;20035;-75
2022/12/01 09:57:37;;;;;;;21.17;13.32;;;4.40;99.90;;;;;;5064769;28;20021;-75
2022/12/01 10:00:10;;;;;;;20.10;13.25;;;4.40;99.90;;;;;;5057478;28;20045;-75
2022/12/01 10:02:46;;;;;;;20.02;11.45;;;4.40;99.90;;;;;;5068779;28;20017;-76
2022/12/01 10:05:19;;;;;;;21.80;12.70;;;4.40;99.90;;;;;;5070225;28;20091;-76
2022/12/01 10:08:00;;;;;;;20.42;13.65;;;4.40;99.90;;;;;;5068406;28;20021;-77
2022/12/01 10:10:43;;;;;;;17.27;12.57;;;4.40;99.90;;;;;;5073976;28;20117;-76
2022/12/01 10:13:39;;;;;;;21.75;14.02;;;4.40;99.90;;;;;;5064509;28;20020;-76
2022/12/01 10:16:09;;;;;;;26.08;15.07;;;4.50;99.90;;;;;;5065541;28;20079;-76
2022/12/01 10:18:48;;;;;;;25.67;17.08;;;4.40;99.90;;;;;;5059384;28;20419;-76
2022/12/01 10:21:26;;;;;;;24.92;14.73;;;4.40;99.90;;;;;;5072733;28;20446;-76
2022/12/01 10:24:01;;;;;;;21.52;13.77;;;4.50;99.90;;;;;;5064234;28;20393;-76
2022/12/01 10:26:38;;;;;;;24.08;15.40;;;4.50;99.90;;;;;;5074312;28;20032;-76
2022/12/01 10:29:10;;;;;;;18.60;14.23;;;4.50;99.90;;;;;;5070629;28;20056;-77
2022/12/01 10:31:47;;;;;;;26.25;15.98;;;4.50;99.90;;;;;;5073294;28;20027;-77
2022/12/01 10:34:18;;;;;;;26.33;16.27;;;4.60;99.90;;;;;;5072133;28;20039;-76
2022/12/01 10:36:44;;;;;;;27.98;17.40;;;4.60;99.90;;;;;;5070533;28;20367;-76
2022/12/01 10:39:26;;;;;;;21.60;14.85;;;4.70;99.90;;;;;;5062793;28;20029;-77
2022/12/01 10:41:54;;;;;;;26.95;14.98;;;4.70;99.90;;;;;;5067059;28;20507;-77
2022/12/01 10:44:20;;;;;;;84.85;50.17;;;4.60;99.90;;;;;;5069538;28;20024;-77
2022/12/01 10:46:52;;;;;;;24.45;16.17;;;4.80;99.90;;;;;;5071011;28;20021;-77
2022/12/01 10:49:19;;;;;;;28.15;15.52;;;4.80;99.90;;;;;;5063493;28;20100;-77
2022/12/01 10:51:56;;;;;;;25.27;15.90;;;4.90;99.90;;;;;;5066342;28;20031;-77
2022/12/01 10:54:31;;;;;;;23.65;14.57;;;4.90;99.90;;;;;;5065705;28;20385;-76
2022/12/01 10:56:57;;;;;;;32.75;18.08;;;4.90;99.90;;;;;;5075470;28;20073;-76
2022/12/01 10:59:41;;;;;;;30.65;15.90;;;4.90;99.90;;;;;;5065617;28;20068;-77
2022/12/01 11:02:16;;;;;;;27.00;16.08;;;5.00;99.90;;;;;;5062675;28;20457;-76
2022/12/01 11:04:49;;;;;;;30.55;16.15;;;5.00;99.90;;;;;;5066909;28;20673;-76
2022/12/01 11:07:27;;;;;;;25.10;15.95;;;5.00;99.90;;;;;;5061595;28;20393;-77
2022/12/01 11:10:11;;;;;;;22.67;15.60;;;4.90;99.90;;;;;;5066402;28;20026;-77
2022/12/01 11:12:37;;;;;;;27.67;17.00;;;4.90;99.90;;;;;;5078820;28;20029;-77
2022/12/01 11:15:04;;;;;;;26.30;16.63;;;4.80;99.90;;;;;;5068665;28;20079;-77
2022/12/01 11:17:43;;;;;;;28.77;15.98;;;4.90;99.90;;;;;;5061283;28;20370;-77
2022/12/01 11:20:27;;;;;;;25.73;16.60;;;5.00;99.90;;;;;;5067499;28;20024;-77
2022/12/01 11:23:19;;;;;;;23.63;16.58;;;5.00;99.90;;;;;;5070012;28;20024;-77
2022/12/01 11:26:11;;;;;;;24.77;16.80;;;5.10;99.90;;;;;;5069436;28;20064;-77
2022/12/01 11:28:48;;;;;;;26.55;18.00;;;5.20;99.90;;;;;;5070904;28;20021;-77
2022/12/01 11:31:15;;;;;;;28.60;17.02;;;5.20;99.90;;;;;;5068998;28;20025;-77
2022/12/01 11:34:33;;;;;;;31.90;18.60;;;5.20;99.90;;;;;;5069716;28;20374;-77
2022/12/01 11:37:06;;;;;;;28.25;16.85;;;5.20;99.90;;;;;;5059331;28;20366;-78
2022/12/01 11:39:36;;;;;;;25.25;16.77;;;5.20;99.90;;;;;;5075574;28;20028;-78
2022/12/01 11:42:10;;;;;;;27.05;16.85;;;5.30;99.90;;;;;;5069389;28;20450;-77
2022/12/01 11:44:36;;;;;;;29.10;16.85;;;5.40;99.90;;;;;;5076607;28;20601;-78
2022/12/01 11:47:21;;;;;;;20.35;15.10;;;5.50;99.90;;;;;;5077671;28;20024;-78
2022/12/01 11:49:57;;;;;;;24.75;16.58;;;5.60;99.90;;;;;;5065674;28;20021;-78
2022/12/01 11:52:32;;;;;;;21.45;14.80;;;5.60;99.90;;;;;;5074658;28;20396;-79
2022/12/01 11:55:11;;;;;;;25.35;17.08;;;5.70;99.90;;;;;;5059633;28;20021;-79
2022/12/01 11:57:40;;;;;;;25.27;17.95;;;5.80;99.90;;;;;;5062453;28;20497;-79
2022/12/01 12:00:43;;;;;;;27.60;16.77;;;5.90;99.90;;;;;;5066859;28;20033;-78
2022/12/01 12:03:40;;;;;;;21.77;14.98;;;6.00;99.90;;;;;;5063370;28;20041;-79
2022/12/01 12:06:22;;;;;;;23.75;16.33;;;6.10;99.90;;;;;;5071878;28;20048;-78
2022/12/01 12:09:00;;;;;;;24.27;15.07;;;6.20;99.90;;;;;;5063650;28;20035;-80
2022/12/01 12:11:36;;;;;;;27.98;15.73;;;6.30;99.90;;;;;;5071326;28;20512;-79
2022/12/01 12:14:48;;;;;;;25.75;16.35;;;6.40;99.90;;;;;;5072900;28;20029;-79
2022/12/01 12:17:44;;;;;;;25.80;17.33;;;6.40;99.90;;;;;;5055192;28;20029;-79
2022/12/01 12:20:41;;;;;;;24.58;16.85;;;6.40;99.90;;;;;;5066624;28;20500;-80
2022/12/01 12:23:25;;;;;;;20.98;14.20;;;6.50;99.90;;;;;;5070670;28;20036;-77
2022/12/01 12:26:09;;;;;;;30.50;16.55;;;6.40;99.90;;;;;;5066975;28;20059;-77
2022/12/01 12:28:51;;;;;;;22.52;14.98;;;6.50;99.90;;;;;;5066411;28;20379;-77
2022/12/01 12:31:56;;;;;;;19.40;14.65;;;6.60;99.90;;;;;;5073331;28;20020;-77
2022/12/01 12:34:45;;;;;;;20.75;14.43;;;6.60;99.90;;;;;;5071157;28;20037;-76
2022/12/01 12:37:24;;;;;;;19.20;13.00;;;6.70;99.90;;;;;;5063675;28;20063;-76
2022/12/01 12:40:25;;;;;;;16.53;12.70;;;6.70;99.90;;;;;;5073935;28;20070;-77
2022/12/01 12:42:57;;;;;;;18.10;12.85;;;6.80;99.90;;;;;;5060365;28;20025;-77
2022/12/01 12:46:04;;;;;;;16.77;12.65;;;6.70;99.90;;;;;;5064906;28;20075;-77
2022/12/01 12:48:41;;;;;;;15.85;11.63;;;6.80;99.90;;;;;;5059630;28;20028;-77
2022/12/01 12:51:17;;;;;;;17.00;12.32;;;6.70;99.90;;;;;;5074913;28;20046;-77
2022/12/01 12:53:58;;;;;;;16.42;11.82;;;6.70;99.90;;;;;;5063306;28;20056;-77
2022/12/01 12:56:28;;;;;;;18.75;12.45;;;6.70;99.90;;;;;;5064004;28;20033;-77
2022/12/01 12:59:03;;;;;;;16.95;13.27;;;6.70;99.90;;;;;;5065802;28;20033;-78
2022/12/01 13:01:40;;;;;;;21.30;14.13;;;6.80;99.90;;;;;;5064337;28;20371;-79
2022/12/01 13:04:21;;;;;;;15.90;12.10;;;6.90;99.90;;;;;;5068840;28;20095;-78